This is the latest recevied weather packets stored in our database for station/object R1CBW-13. If no packets are shown the sender has not sent any weather packets the latest 1 day(s).
| Time | Temp. | Humidity | Pressure | Rain* | Wind** | Luminosity | Snow |
|---|---|---|---|---|---|---|---|
| 1778026464 | 5° C | 69% | 1005.3 hPa | 0 mm | - | - | - |
| 1778026404 | 5.56° C | 68% | 1005.2 hPa | 0 mm | - | - | - |
| 1778026044 | 5.56° C | 66% | 1005.3 hPa | 0 mm | - | - | - |
| 1778025264 | 5° C | 68% | 1005.1 hPa | 0 mm | - | - | - |
| 1778024784 | 7.22° C | 58% | 1005.2 hPa | 0 mm | - | - | - |
| 1778024724 | 7.22° C | 59% | 1005.1 hPa | 0 mm | - | - | - |
| 1778024664 | 7.22° C | 59% | 1005.1 hPa | 0 mm | - | - | - |
| 1778024604 | 6.67° C | 60% | 1005.1 hPa | 0 mm | - | - | - |
| 1778024484 | 7.22° C | 59% | 1005.1 hPa | 0 mm | - | - | - |
| 1778024365 | 6.67° C | 60% | 1005.2 hPa | 0 mm | - | - | - |
| 1778024244 | 6.11° C | 62% | 1005.1 hPa | 0 mm | - | - | - |
| 1778024184 | 6.11° C | 64% | 1005.1 hPa | 0 mm | - | - | - |
| 1778024124 | 5.56° C | 64% | 1005.1 hPa | 0 mm | - | - | - |
| 1778024064 | 6.11° C | 63% | 1005 hPa | 0 mm | - | - | - |
| 1778024004 | 5.56° C | 63% | 1005.2 hPa | 0 mm | - | - | - |
| 1778023944 | 6.11° C | 64% | 1005.1 hPa | 0 mm | - | - | - |
| 1778023884 | 5.56° C | 64% | 1005.1 hPa | 0 mm | - | - | - |
| 1778023584 | 5.56° C | 63% | 1005.1 hPa | 0 mm | - | - | - |
| 1778020103 | 6.11° C | 64% | 1005 hPa | 0 mm | - | - | - |
| 1778020043 | 6.11° C | 64% | 1005 hPa | 0 mm | - | - | - |
| 1778019863 | 6.11° C | 65% | 1005 hPa | 0 mm | - | - | - |
| 1778019803 | 6.11° C | 64% | 1005.1 hPa | 0 mm | - | - | - |
| 1778019743 | 6.11° C | 65% | 1005 hPa | 0 mm | - | - | - |
| 1778019623 | 6.11° C | 65% | 1005 hPa | 0 mm | - | - | - |
| 1778019503 | 6.11° C | 64% | 1005.1 hPa | 0 mm | - | - | - |
* Rain latest hour (hover to see other rain measurements)
** Current wind speed in m/s (hover to see current wind gust speed)